createdAt,value
2024-03-12T00:01:12.809Z,100742.22
2024-03-12T00:03:45.678Z,100746.06
2024-03-12T00:06:21.617Z,100743.84
2024-03-12T00:08:54.206Z,100733.19
2024-03-12T00:11:27.548Z,100746.03
2024-03-12T00:13:59.660Z,100747.91
2024-03-12T00:16:35.196Z,100741.81
2024-03-12T00:19:11.188Z,100737.31
2024-03-12T00:21:47.330Z,100743.38
2024-03-12T00:24:19.886Z,100746.03
2024-03-12T00:26:52.225Z,100747.13
2024-03-12T00:29:25.083Z,100745.72
2024-03-12T00:31:57.543Z,100748.25
2024-03-12T00:34:31.725Z,100749.06
2024-03-12T00:37:06.632Z,100749.06
2024-03-12T00:39:39.548Z,100746.06
2024-03-12T00:42:12.117Z,100752.16
2024-03-12T00:44:45.136Z,100755.22
2024-03-12T00:47:17.714Z,100754.00
2024-03-12T00:49:49.921Z,100753.78
2024-03-12T00:52:25.295Z,100766.16
2024-03-12T00:54:57.670Z,100772.56
2024-03-12T00:57:30.057Z,100768.69
2024-03-12T01:00:02.006Z,100769.00
2024-03-12T01:02:34.664Z,100770.50
2024-03-12T01:05:08.930Z,100774.72
2024-03-12T01:07:43.485Z,100779.28
2024-03-12T01:10:15.233Z,100781.22
2024-03-12T01:12:48.086Z,100779.59
2024-03-12T01:15:20.628Z,100787.97
2024-03-12T01:17:52.978Z,100779.16
2024-03-12T01:20:26.792Z,100792.81
2024-03-12T01:23:03.001Z,100783.34
2024-03-12T01:25:38.541Z,100786.75
2024-03-12T01:28:12.204Z,100787.09
2024-03-12T01:30:44.406Z,100789.41
2024-03-12T01:33:16.586Z,100785.22
2024-03-12T01:35:49.343Z,100790.59
2024-03-12T01:38:24.129Z,100783.50
2024-03-12T01:40:56.252Z,100791.03
2024-03-12T01:43:29.626Z,100783.09
2024-03-12T01:46:04.364Z,100789.88
2024-03-12T01:48:36.716Z,100779.59
2024-03-12T01:51:10.004Z,100777.69
2024-03-12T01:53:47.421Z,100776.25
2024-03-12T01:56:19.484Z,100784.59
2024-03-12T01:58:52.307Z,100777.84
2024-03-12T02:01:24.808Z,100780.44
2024-03-12T02:03:58.096Z,100782.03
2024-03-12T02:06:30.426Z,100785.47
2024-03-12T02:09:07.996Z,100780.84
2024-03-12T02:11:42.016Z,100780.78
2024-03-12T02:14:14.181Z,100784.59
2024-03-12T02:16:47.775Z,100775.56
2024-03-12T02:19:20.685Z,100781.63
2024-03-12T02:21:53.390Z,100774.88
2024-03-12T02:24:28.533Z,100780.09
2024-03-12T02:27:00.784Z,100780.00
2024-03-12T02:29:33.504Z,100776.31
2024-03-12T02:32:06.313Z,100783.13
2024-03-12T02:34:38.693Z,100786.84
2024-03-12T02:37:11.498Z,100775.47
2024-03-12T02:39:46.576Z,100787.25
2024-03-12T02:42:16.960Z,100777.78
2024-03-12T02:44:48.782Z,100779.28
2024-03-12T02:47:22.442Z,100771.34
2024-03-12T02:49:55.964Z,100768.03
2024-03-12T02:52:28.775Z,100768.69
2024-03-12T02:55:05.088Z,100769.09
2024-03-12T02:57:37.033Z,100772.06
2024-03-12T03:00:14.905Z,100769.13
2024-03-12T03:02:48.549Z,100773.25
2024-03-12T03:05:20.832Z,100768.69
2024-03-12T03:07:53.083Z,100771.75
2024-03-12T03:10:28.056Z,100780.00
2024-03-12T03:13:01.440Z,100775.41
2024-03-12T03:15:33.903Z,100771.63
2024-03-12T03:18:07.617Z,100769.41
2024-03-12T03:20:40.617Z,100772.06
2024-03-12T03:23:12.634Z,100770.88
2024-03-12T03:25:48.121Z,100768.69
2024-03-12T03:28:19.931Z,100774.88
2024-03-12T03:30:55.219Z,100770.25
2024-03-12T03:33:27.058Z,100765.72
2024-03-12T03:35:59.611Z,100763.19
2024-03-12T03:38:31.797Z,100764.19
2024-03-12T03:41:07.470Z,100753.25
2024-03-12T03:43:39.493Z,100759.75
2024-03-12T03:46:12.337Z,100758.53
2024-03-12T03:48:46.048Z,100764.69
2024-03-12T03:51:18.934Z,100758.97
2024-03-12T03:53:51.694Z,100757.44
2024-03-12T03:56:26.926Z,100755.22
2024-03-12T03:58:59.983Z,100760.97
2024-03-12T04:01:33.237Z,100765.13
2024-03-12T04:04:12.756Z,100759.84
2024-03-12T04:06:47.601Z,100753.09
2024-03-12T04:09:20.143Z,100760.53
2024-03-12T04:11:55.422Z,100762.91
2024-03-12T04:14:28.265Z,100764.13
2024-03-12T04:16:59.283Z,100761.72
2024-03-12T04:19:33.367Z,100768.81
2024-03-12T04:22:05.949Z,100773.41
2024-03-12T04:24:38.426Z,100771.56
2024-03-12T04:27:16.276Z,100767.34
2024-03-12T04:29:47.148Z,100778.72
2024-03-12T04:32:17.992Z,100781.78
2024-03-12T04:34:48.740Z,100784.44
2024-03-12T04:37:19.509Z,100790.84
2024-03-12T04:39:50.382Z,100788.72
2024-03-12T04:42:25.659Z,100787.00
2024-03-12T04:44:57.512Z,100793.41
2024-03-12T04:47:28.312Z,100786.31
2024-03-12T04:49:59.127Z,100796.16
2024-03-12T04:52:29.873Z,100798.69
2024-03-12T04:55:01.113Z,100797.25
2024-03-12T04:57:36.933Z,100803.75
2024-03-12T05:00:16.211Z,100802.97
2024-03-12T05:02:48.264Z,100802.22
2024-03-12T05:05:20.677Z,100808.97
2024-03-12T05:07:51.824Z,100805.56
2024-03-12T05:10:23.911Z,100804.19
2024-03-12T05:12:57.836Z,100806.06
2024-03-12T05:15:28.639Z,100811.69
2024-03-12T05:17:59.538Z,100814.34
2024-03-12T05:20:30.977Z,100810.94
2024-03-12T05:23:03.573Z,100816.75
2024-03-12T05:25:43.776Z,100817.19
2024-03-12T05:28:17.306Z,100816.06
2024-03-12T05:30:50.067Z,100822.13
2024-03-12T05:33:27.951Z,100822.13
2024-03-12T05:35:58.752Z,100819.84
2024-03-12T05:38:37.738Z,100828.63
2024-03-12T05:41:27.012Z,100822.94
2024-03-12T05:44:21.909Z,100827.78
2024-03-12T05:47:05.086Z,100838.09
2024-03-12T05:49:36.276Z,100837.94
2024-03-12T05:52:07.500Z,100838.38
2024-03-12T05:54:38.352Z,100829.66
2024-03-12T05:57:09.977Z,100833.09
2024-03-12T05:59:43.572Z,100828.63
2024-03-12T06:02:14.548Z,100832.03
2024-03-12T06:04:45.688Z,100836.16
2024-03-12T06:07:18.175Z,100832.13
2024-03-12T06:09:50.723Z,100835.03
2024-03-12T06:12:21.734Z,100838.03
2024-03-12T06:14:55.105Z,100833.75
2024-03-12T06:17:25.903Z,100843.75
2024-03-12T06:19:56.687Z,100841.94
2024-03-12T06:22:28.141Z,100850.63
2024-03-12T06:24:59.162Z,100846.91
2024-03-12T06:27:30.618Z,100855.31
2024-03-12T06:30:03.953Z,100853.94
2024-03-12T06:32:35.331Z,100856.56
2024-03-12T06:35:06.223Z,100861.94
2024-03-12T06:37:37.025Z,100876.16
2024-03-12T06:40:08.654Z,100869.91
2024-03-12T06:42:39.435Z,100867.25
2024-03-12T06:45:13.617Z,100860.78
2024-03-12T06:47:44.428Z,100871.06
2024-03-12T06:50:15.649Z,100876.25
2024-03-12T06:52:50.334Z,100864.97
2024-03-12T06:55:25.018Z,100879.59
2024-03-12T06:58:01.283Z,100878.38
2024-03-12T07:00:38.913Z,100882.47
2024-03-12T07:03:10.819Z,100880.09
2024-03-12T07:05:45.065Z,100877.59
2024-03-12T07:08:18.919Z,100886.22
2024-03-12T07:10:50.138Z,100888.97
2024-03-12T07:13:25.006Z,100892.28
2024-03-12T07:16:05.025Z,100884.19
2024-03-12T07:18:41.415Z,100888.41
2024-03-12T07:21:12.246Z,100894.78
2024-03-12T07:23:43.004Z,100898.56
2024-03-12T07:26:13.765Z,100892.47
2024-03-12T07:28:45.028Z,100900.63
2024-03-12T07:31:18.525Z,100906.34
2024-03-12T07:33:49.836Z,100910.09
2024-03-12T07:36:22.253Z,100909.75
2024-03-12T07:38:54.013Z,100904.94
2024-03-12T07:41:24.816Z,100910.44
2024-03-12T07:43:56.201Z,100909.25
2024-03-12T07:46:29.984Z,100912.31
2024-03-12T07:49:00.786Z,100911.63
2024-03-12T07:51:31.803Z,100916.09
2024-03-12T07:54:07.778Z,100923.00
2024-03-12T07:56:38.750Z,100914.53
2024-03-12T07:59:09.529Z,100918.47
2024-03-12T08:01:42.935Z,100921.97
2024-03-12T08:04:14.365Z,100919.41
2024-03-12T08:06:45.228Z,100923.06
2024-03-12T08:09:16.391Z,100914.69
2024-03-12T08:11:47.899Z,100922.94
2024-03-12T08:14:19.141Z,100922.94
2024-03-12T08:16:52.553Z,100928.31
2024-03-12T08:19:26.840Z,100932.91
2024-03-12T08:21:57.726Z,100932.59
2024-03-12T08:24:30.678Z,100931.47
2024-03-12T08:27:01.489Z,100926.59
2024-03-12T08:29:32.276Z,100925.84
2024-03-12T08:32:05.692Z,100927.72
2024-03-12T08:34:38.107Z,100927.03
2024-03-12T08:37:10.703Z,100929.34
2024-03-12T08:39:41.926Z,100934.13
2024-03-12T08:42:12.735Z,100936.00
2024-03-12T08:44:44.691Z,100932.59
2024-03-12T08:47:15.673Z,100946.03
2024-03-12T08:49:47.385Z,100942.94
2024-03-12T08:52:18.273Z,100944.50
2024-03-12T08:54:49.201Z,100945.91
2024-03-12T08:57:20.135Z,100944.72
2024-03-12T08:59:51.333Z,100953.28
2024-03-12T09:02:24.855Z,100947.22
2024-03-12T09:04:55.678Z,100949.78
2024-03-12T09:07:26.457Z,100954.31
2024-03-12T09:09:59.969Z,100958.94
2024-03-12T09:12:31.263Z,100957.31
2024-03-12T09:15:03.725Z,100969.19
2024-03-12T09:17:37.608Z,100960.97
2024-03-12T09:20:11.613Z,100961.41
2024-03-12T09:22:45.802Z,100968.25
2024-03-12T09:25:19.796Z,100969.13
2024-03-12T09:27:51.518Z,100964.41
2024-03-12T09:30:22.358Z,100970.47
2024-03-12T09:32:55.727Z,100974.09
2024-03-12T09:35:26.568Z,100966.72
2024-03-12T09:37:58.085Z,100971.00
2024-03-12T09:40:29.777Z,100970.00
2024-03-12T09:43:04.945Z,100974.69
2024-03-12T09:45:36.246Z,100989.13
2024-03-12T09:48:10.520Z,100997.16
2024-03-12T09:50:43.339Z,100985.03
2024-03-12T09:53:15.961Z,100989.56
2024-03-12T09:55:46.985Z,100989.47
2024-03-12T09:58:17.993Z,100991.88
2024-03-12T10:00:48.822Z,100996.41
2024-03-12T10:03:25.842Z,101004.03
2024-03-12T10:05:56.969Z,101000.34
2024-03-12T10:08:33.151Z,100996.22
2024-03-12T10:11:10.362Z,100993.56
2024-03-12T10:13:43.171Z,100995.31
2024-03-12T10:16:22.238Z,100996.16
2024-03-12T10:19:10.644Z,100996.22
2024-03-12T10:21:42.268Z,100988.25
2024-03-12T10:24:14.787Z,100984.06
2024-03-12T10:26:46.492Z,100996.16
2024-03-12T10:29:19.777Z,100990.31
2024-03-12T10:31:52.128Z,100990.41
2024-03-12T10:34:25.579Z,100986.13
2024-03-12T10:36:56.379Z,100983.72
2024-03-12T10:39:34.186Z,100984.03
2024-03-12T10:42:05.401Z,100981.38
2024-03-12T10:44:40.298Z,100981.13
2024-03-12T10:47:12.382Z,100988.75
2024-03-12T10:49:49.400Z,100980.03
2024-03-12T10:52:21.342Z,100988.16
2024-03-12T10:55:05.035Z,100991.63
2024-03-12T10:57:42.013Z,100983.19
2024-03-12T11:00:16.997Z,100983.25
2024-03-12T11:02:48.289Z,100982.53
2024-03-12T11:05:23.876Z,100985.78
2024-03-12T11:07:55.473Z,100984.25
2024-03-12T11:10:28.284Z,100983.50
2024-03-12T11:13:03.497Z,100989.56
2024-03-12T11:15:35.391Z,100983.53
2024-03-12T11:18:06.800Z,100981.31
2024-03-12T11:20:43.231Z,100978.22
2024-03-12T11:23:15.971Z,100979.94
2024-03-12T11:25:51.286Z,100985.75
2024-03-12T11:28:23.870Z,100983.41
2024-03-12T11:31:05.696Z,100979.72
2024-03-12T11:33:51.061Z,100981.59
2024-03-12T11:36:36.029Z,100986.38
2024-03-12T11:39:16.911Z,100987.19
2024-03-12T11:42:16.647Z,100984.00
2024-03-12T11:44:49.587Z,100982.44
2024-03-12T11:47:36.270Z,100976.69
2024-03-12T11:50:11.873Z,100979.28
2024-03-12T11:52:45.332Z,100986.94
2024-03-12T11:55:36.064Z,100976.03
2024-03-12T11:58:07.828Z,100986.28
2024-03-12T12:00:39.744Z,100978.25
2024-03-12T12:03:10.609Z,100978.75
2024-03-12T12:05:42.207Z,100983.72
2024-03-12T12:08:16.369Z,100981.88
2024-03-12T12:10:59.758Z,100984.25
2024-03-12T12:13:31.016Z,100987.63
2024-03-12T12:16:02.816Z,100984.97
2024-03-12T12:18:34.937Z,100979.66
2024-03-12T12:21:08.123Z,100982.78
2024-03-12T12:23:45.131Z,100983.75
2024-03-12T12:26:20.159Z,100983.41
2024-03-12T12:28:51.050Z,100983.72
2024-03-12T12:31:22.586Z,100981.38
2024-03-12T12:33:56.918Z,100978.72
2024-03-12T12:36:30.245Z,100971.28
2024-03-12T12:39:05.490Z,100969.22
2024-03-12T12:41:39.427Z,100968.41
2024-03-12T12:44:18.360Z,100973.13
2024-03-12T12:46:53.708Z,100966.50
2024-03-12T12:49:26.338Z,100970.25
2024-03-12T12:51:58.910Z,100967.91
2024-03-12T12:54:33.661Z,100971.81
2024-03-12T12:57:04.437Z,100971.94
2024-03-12T12:59:38.242Z,100967.00
2024-03-12T13:02:20.092Z,100967.16
2024-03-12T13:04:51.045Z,100973.28
2024-03-12T13:07:33.595Z,100975.00
2024-03-12T13:10:18.368Z,100972.75
2024-03-12T13:12:49.768Z,100974.03
2024-03-12T13:15:27.314Z,100976.06
2024-03-12T13:17:58.115Z,100972.22
2024-03-12T13:20:29.266Z,100977.53
2024-03-12T13:23:00.149Z,100978.22
2024-03-12T13:25:33.517Z,100979.75
2024-03-12T13:28:05.037Z,100985.09
2024-03-12T13:30:35.872Z,100981.69
2024-03-12T13:33:07.745Z,100980.88
2024-03-12T13:35:38.551Z,100979.06
2024-03-12T13:38:10.977Z,100974.56
2024-03-12T13:40:44.366Z,100967.69
2024-03-12T13:43:15.366Z,100974.38
2024-03-12T13:45:47.789Z,100981.28
2024-03-12T13:48:20.610Z,100986.25
2024-03-12T13:50:51.343Z,100993.44
2024-03-12T13:53:22.790Z,100997.34
2024-03-12T13:55:56.107Z,100991.34
2024-03-12T13:58:27.365Z,100998.59
2024-03-12T14:01:00.832Z,100998.06
2024-03-12T14:03:33.719Z,101004.13
2024-03-12T14:06:05.071Z,100996.81
2024-03-12T14:08:35.917Z,101003.19
2024-03-12T14:11:09.341Z,101007.44
2024-03-12T14:13:40.885Z,100999.97
2024-03-12T14:16:11.705Z,101003.78
2024-03-12T14:18:44.134Z,100992.50
2024-03-12T14:21:15.248Z,101000.38
2024-03-12T14:23:46.339Z,100999.78
2024-03-12T14:26:20.241Z,101003.63
2024-03-12T14:28:52.686Z,100998.75
2024-03-12T14:31:23.592Z,101002.16
2024-03-12T14:33:54.430Z,101004.72
2024-03-12T14:36:25.787Z,101000.25
2024-03-12T14:38:57.354Z,101008.69
2024-03-12T14:41:31.040Z,101012.16
2024-03-12T14:44:01.814Z,101010.25
2024-03-12T14:46:32.719Z,101011.22
2024-03-12T14:49:05.718Z,101013.09
2024-03-12T14:51:36.596Z,101008.56
2024-03-12T14:54:07.586Z,101015.75
2024-03-12T14:56:41.869Z,101024.44
2024-03-12T14:59:13.283Z,101027.44
2024-03-12T15:01:45.883Z,101021.88
2024-03-12T15:04:17.609Z,101016.53
2024-03-12T15:06:49.543Z,101014.56
2024-03-12T15:09:23.078Z,101021.44
2024-03-12T15:11:58.481Z,101013.09
2024-03-12T15:14:29.737Z,101018.78
2024-03-12T15:17:00.936Z,101017.81
2024-03-12T15:19:32.447Z,101018.75
2024-03-12T15:22:06.538Z,101015.75
2024-03-12T15:24:39.847Z,101018.03
2024-03-12T15:27:14.391Z,101018.84
2024-03-12T15:29:45.604Z,101016.59
2024-03-12T15:32:17.681Z,101019.75
2024-03-12T15:34:48.590Z,101019.50
2024-03-12T15:37:19.809Z,101011.91
2024-03-12T15:39:51.212Z,101026.75
2024-03-12T15:42:24.770Z,101026.75
2024-03-12T15:44:56.925Z,101028.06
2024-03-12T15:47:28.238Z,101026.63
2024-03-12T15:49:59.836Z,101010.56
2024-03-12T15:52:30.972Z,101021.22
2024-03-12T15:55:03.447Z,101011.78
2024-03-12T15:57:40.020Z,101021.81
2024-03-12T16:00:15.547Z,101013.09
2024-03-12T16:02:48.454Z,101016.56
2024-03-12T16:05:20.499Z,101017.59
2024-03-12T16:07:53.113Z,101020.25
2024-03-12T16:10:24.933Z,101020.25
2024-03-12T16:12:59.265Z,101013.09
2024-03-12T16:15:30.416Z,101017.59
2024-03-12T16:18:02.229Z,101020.13
2024-03-12T16:20:33.872Z,101016.75
2024-03-12T16:23:05.135Z,101018.94
2024-03-12T16:25:36.592Z,101018.19
2024-03-12T16:28:10.959Z,101021.22
2024-03-12T16:30:42.020Z,101023.56
2024-03-12T16:33:13.248Z,101022.31
2024-03-12T16:35:45.770Z,101017.78
2024-03-12T16:38:18.321Z,101023.03
2024-03-12T16:40:49.477Z,101019.19
2024-03-12T16:43:23.552Z,101019.59
2024-03-12T16:45:55.481Z,101024.06
2024-03-12T16:48:27.935Z,101025.47
2024-03-12T16:50:59.501Z,101018.63
2024-03-12T16:53:32.236Z,101023.19
2024-03-12T16:56:04.608Z,101027.72
2024-03-12T16:58:39.641Z,101016.66
2024-03-12T17:01:13.614Z,101028.44
2024-03-12T17:03:45.585Z,101028.44
2024-03-12T17:06:21.101Z,101025.38
2024-03-12T17:08:54.772Z,101036.72
2024-03-12T17:11:26.459Z,101041.34
2024-03-12T17:14:04.720Z,101020.34
2024-03-12T17:16:37.189Z,101030.63
2024-03-12T17:19:11.747Z,101038.25
2024-03-12T17:21:43.842Z,101037.03
2024-03-12T17:24:16.691Z,101038.88
2024-03-12T17:26:50.766Z,101038.50
2024-03-12T17:29:27.103Z,101045.00
2024-03-12T17:31:59.719Z,101041.16
2024-03-12T17:34:32.876Z,101040.31
2024-03-12T17:37:08.361Z,101042.91
2024-03-12T17:39:40.571Z,101044.03
2024-03-12T17:42:13.199Z,101055.09
2024-03-12T17:44:48.278Z,101039.44
2024-03-12T17:47:22.458Z,101042.53
2024-03-12T17:49:58.500Z,101045.91
2024-03-12T17:52:30.910Z,101048.81
2024-03-12T17:55:03.425Z,101043.16
2024-03-12T17:57:37.307Z,101057.56
2024-03-12T18:00:15.871Z,101049.19
2024-03-12T18:02:50.935Z,101046.47
2024-03-12T18:05:26.673Z,101056.78
2024-03-12T18:08:03.779Z,101054.56
2024-03-12T18:10:38.812Z,101054.13
2024-03-12T18:13:15.983Z,101050.72
2024-03-12T18:15:53.958Z,101050.25
2024-03-12T18:18:27.677Z,101054.78
2024-03-12T18:20:59.715Z,101053.72
2024-03-12T18:23:32.767Z,101068.13
2024-03-12T18:26:06.946Z,101065.13
2024-03-12T18:28:39.652Z,101073.59
2024-03-12T18:31:15.618Z,101064.50
2024-03-12T18:33:48.553Z,101068.38
2024-03-12T18:36:22.580Z,101067.56
2024-03-12T18:38:56.259Z,101071.38
2024-03-12T18:41:27.638Z,101069.88
2024-03-12T18:43:59.296Z,101072.22
2024-03-12T18:46:33.135Z,101069.94
2024-03-12T18:49:05.045Z,101062.38
2024-03-12T18:51:37.301Z,101063.91
2024-03-12T18:54:08.991Z,101067.00
2024-03-12T18:56:40.858Z,101072.66
2024-03-12T18:59:13.432Z,101075.69
2024-03-12T19:01:52.671Z,101071.97
2024-03-12T19:04:32.262Z,101081.81
2024-03-12T19:07:04.865Z,101079.88
2024-03-12T19:09:36.775Z,101079.88
2024-03-12T19:12:12.132Z,101074.97
2024-03-12T19:14:45.427Z,101078.75
2024-03-12T19:17:21.501Z,101076.72
2024-03-12T19:19:54.221Z,101079.75
2024-03-12T19:22:27.705Z,101087.00
2024-03-12T19:24:59.273Z,101077.50
2024-03-12T19:27:31.435Z,101086.59
2024-03-12T19:30:07.097Z,101078.34
2024-03-12T19:32:42.548Z,101076.03
2024-03-12T19:35:15.570Z,101084.09
2024-03-12T19:37:48.911Z,101077.22
2024-03-12T19:40:23.092Z,101079.81
2024-03-12T19:42:57.088Z,101071.47
2024-03-12T19:45:31.570Z,101078.06
2024-03-12T19:48:07.395Z,101085.19
2024-03-12T19:50:39.442Z,101083.72
2024-03-12T19:53:11.044Z,101083.72
2024-03-12T19:55:45.065Z,101077.72
2024-03-12T19:58:16.475Z,101083.81
2024-03-12T20:00:51.570Z,101085.47
2024-03-12T20:03:27.792Z,101084.63
2024-03-12T20:05:59.717Z,101088.81
2024-03-12T20:08:30.877Z,101079.97
2024-03-12T20:11:02.189Z,101073.56
2024-03-12T20:13:37.136Z,101078.06
2024-03-12T20:16:12.576Z,101074.66
2024-03-12T20:18:46.404Z,101070.91
2024-03-12T20:21:18.294Z,101073.19
2024-03-12T20:23:49.367Z,101064.19
2024-03-12T20:26:21.368Z,101055.78
2024-03-12T20:28:52.863Z,101057.19
2024-03-12T20:31:24.769Z,101058.34
2024-03-12T20:33:59.044Z,101066.34
2024-03-12T20:36:30.339Z,101062.19
2024-03-12T20:39:02.018Z,101066.47
2024-03-12T20:41:33.453Z,101071.03
2024-03-12T20:44:04.657Z,101073.59
2024-03-12T20:49:11.690Z,101067.63
2024-03-12T20:51:43.661Z,101065.75
2024-03-12T20:54:15.153Z,101071.44
2024-03-12T20:56:48.163Z,101068.03
2024-03-12T20:59:19.522Z,101075.34
2024-03-12T21:01:51.331Z,101065.81
2024-03-12T21:04:26.402Z,101074.19
2024-03-12T21:06:58.752Z,101073.16
2024-03-12T21:09:29.916Z,101074.31
2024-03-12T21:12:02.852Z,101069.06
2024-03-12T21:14:34.385Z,101064.06
2024-03-12T21:17:07.758Z,101069.47
2024-03-12T21:19:41.449Z,101062.25
2024-03-12T21:22:12.527Z,101052.38
2024-03-12T21:24:45.228Z,101060.44
2024-03-12T21:27:18.107Z,101061.53
2024-03-12T21:29:49.501Z,101063.09
2024-03-12T21:32:20.898Z,101069.91
2024-03-12T21:34:55.339Z,101078.69
2024-03-12T21:37:26.995Z,101074.47
2024-03-12T21:39:58.122Z,101082.84
2024-03-12T21:42:29.569Z,101083.28
2024-03-12T21:45:01.413Z,101088.19
2024-03-12T21:47:32.439Z,101087.91
2024-03-12T21:50:06.196Z,101083.72
2024-03-12T21:52:37.221Z,101091.34
2024-03-12T21:55:12.410Z,101102.44
2024-03-12T21:57:45.488Z,101087.91
2024-03-12T22:00:25.829Z,101093.66
2024-03-12T22:02:59.968Z,101096.69
2024-03-12T22:05:36.306Z,101097.03
2024-03-12T22:08:10.769Z,101093.66
2024-03-12T22:10:43.362Z,101095.22
2024-03-12T22:13:24.273Z,101097.03
2024-03-12T22:16:07.310Z,101097.47
2024-03-12T22:18:40.707Z,101101.28
2024-03-12T22:21:17.372Z,101102.00
2024-03-12T22:23:50.896Z,101101.22
2024-03-12T22:26:24.531Z,101106.97
2024-03-12T22:28:56.544Z,101106.53
2024-03-12T22:31:29.080Z,101117.19
2024-03-12T22:34:02.242Z,101115.75
2024-03-12T22:36:40.341Z,101113.44
2024-03-12T22:39:15.003Z,101115.00
2024-03-12T22:41:49.417Z,101114.91
2024-03-12T22:44:23.303Z,101111.94
2024-03-12T22:46:57.139Z,101116.78
2024-03-12T22:49:30.448Z,101116.84
2024-03-12T22:52:09.863Z,101120.66
2024-03-12T22:54:44.456Z,101116.09
2024-03-12T22:57:18.247Z,101124.84
2024-03-12T22:59:53.425Z,101118.75
2024-03-12T23:02:30.404Z,101116.78
2024-03-12T23:05:05.150Z,101124.41
2024-03-12T23:07:41.678Z,101120.50
2024-03-12T23:10:14.755Z,101120.50
2024-03-12T23:12:47.750Z,101118.56
2024-03-12T23:15:22.109Z,101122.38
2024-03-12T23:17:55.119Z,101121.53
2024-03-12T23:20:28.645Z,101123.81
2024-03-12T23:23:04.281Z,101126.84
2024-03-12T23:25:38.097Z,101127.94
2024-03-12T23:28:12.798Z,101128.38
2024-03-12T23:30:47.109Z,101124.94
2024-03-12T23:33:20.356Z,101128.03
2024-03-12T23:35:53.649Z,101122.38
2024-03-12T23:38:29.597Z,101120.47
2024-03-12T23:41:02.249Z,101121.94
2024-03-12T23:43:35.730Z,101118.50
2024-03-12T23:46:09.014Z,101121.56
2024-03-12T23:48:42.797Z,101118.44
2024-03-12T23:51:16.189Z,101113.97
2024-03-12T23:53:52.680Z,101115.50
2024-03-12T23:56:28.137Z,101116.88
2024-03-12T23:59:01.612Z,101115.06
